createdAt,value
2022-09-23T00:00:35.325Z,3.43
2022-09-23T00:06:15.867Z,3.33
2022-09-23T00:11:28.840Z,3.80
2022-09-23T00:16:52.073Z,3.33
2022-09-23T00:22:17.323Z,3.53
2022-09-23T00:27:22.788Z,3.30
2022-09-23T00:32:36.852Z,3.40
2022-09-23T00:37:54.331Z,3.30
2022-09-23T00:43:00.881Z,3.33
2022-09-23T00:48:07.779Z,3.53
2022-09-23T00:53:25.477Z,3.13
2022-09-23T00:58:37.754Z,2.97
2022-09-23T01:03:58.958Z,3.23
2022-09-23T01:09:22.994Z,3.20
2022-09-23T01:14:51.253Z,3.70
2022-09-23T01:20:19.080Z,3.07
2022-09-23T01:25:55.688Z,3.50
2022-09-23T01:31:12.161Z,3.97
2022-09-23T01:36:23.901Z,5.23
2022-09-23T01:41:48.263Z,3.70
2022-09-23T01:47:16.686Z,3.57
2022-09-23T01:52:30.071Z,3.40
2022-09-23T01:57:44.403Z,3.40
2022-09-23T02:03:00.305Z,2.87
2022-09-23T02:08:11.301Z,3.20
2022-09-23T02:13:34.412Z,3.57
2022-09-23T02:19:02.598Z,3.17
2022-09-23T02:24:32.263Z,3.00
2022-09-23T02:29:56.510Z,3.50
2022-09-23T02:35:17.651Z,3.43
2022-09-23T02:40:33.269Z,3.27
2022-09-23T02:45:45.775Z,3.43
2022-09-23T02:51:04.208Z,3.00
2022-09-23T02:56:16.581Z,3.33
2022-09-23T03:01:34.647Z,3.43
2022-09-23T03:06:56.534Z,3.60
2022-09-23T03:12:14.436Z,3.37
2022-09-23T03:17:29.432Z,3.37
2022-09-23T03:22:54.060Z,3.33
2022-09-23T03:28:08.692Z,3.50
2022-09-23T03:33:19.978Z,3.30
2022-09-23T03:38:39.623Z,3.57
2022-09-23T03:43:56.128Z,3.97
2022-09-23T03:49:08.297Z,3.87
2022-09-23T03:54:26.862Z,3.47
2022-09-23T03:59:38.317Z,3.80
2022-09-23T04:04:47.220Z,3.57
2022-09-23T04:09:54.831Z,3.47
2022-09-23T04:15:18.472Z,4.27
2022-09-23T04:20:34.123Z,3.73
2022-09-23T04:25:47.814Z,3.87
2022-09-23T04:30:56.107Z,3.60
2022-09-23T04:36:09.244Z,3.27
2022-09-23T04:41:39.561Z,3.87
2022-09-23T04:47:07.152Z,3.47
2022-09-23T04:52:30.366Z,3.53
2022-09-23T04:57:47.352Z,3.53
2022-09-23T05:02:54.602Z,3.50
2022-09-23T05:08:31.427Z,3.97
2022-09-23T05:13:39.463Z,3.40
2022-09-23T05:18:46.518Z,3.87
2022-09-23T05:23:55.547Z,3.37
2022-09-23T05:29:02.282Z,3.67
2022-09-23T05:34:15.547Z,3.90
2022-09-23T05:39:24.035Z,3.80
2022-09-23T05:44:46.210Z,3.03
2022-09-23T05:50:00.162Z,3.60
2022-09-23T05:55:17.139Z,3.77
2022-09-23T06:00:26.955Z,3.20
2022-09-23T06:05:38.254Z,3.00
2022-09-23T06:10:54.609Z,2.60
2022-09-23T06:16:05.156Z,3.23
2022-09-23T06:21:18.320Z,2.77
2022-09-23T06:26:28.963Z,2.60
2022-09-23T06:31:37.037Z,2.17
2022-09-23T06:37:12.225Z,2.20
2022-09-23T06:42:21.092Z,2.03
2022-09-23T06:47:35.077Z,2.20
2022-09-23T06:52:42.616Z,2.00
2022-09-23T06:57:52.232Z,1.95
2022-09-23T07:03:10.475Z,2.08
2022-09-23T07:08:20.592Z,2.30
2022-09-23T07:13:45.729Z,1.80
2022-09-23T07:18:59.622Z,2.05
2022-09-23T07:24:16.357Z,1.90
2022-09-23T07:29:24.155Z,2.20
2022-09-23T07:34:30.436Z,1.90
2022-09-23T07:39:42.837Z,1.70
2022-09-23T07:44:48.361Z,1.45
2022-09-23T07:49:57.845Z,1.85
2022-09-23T07:55:05.544Z,1.90
2022-09-23T08:00:18.257Z,2.05
2022-09-23T08:05:26.246Z,2.00
2022-09-23T08:10:35.435Z,2.10
2022-09-23T08:21:12.998Z,1.80
2022-09-23T08:26:23.355Z,1.60
2022-09-23T08:31:39.442Z,1.90
2022-09-23T08:36:56.207Z,1.58
2022-09-23T08:42:26.307Z,1.80
2022-09-23T08:47:44.277Z,1.60
2022-09-23T08:52:58.872Z,2.08
2022-09-23T08:58:32.740Z,1.70
2022-09-23T09:03:57.632Z,1.95
2022-09-23T09:09:06.542Z,2.10
2022-09-23T09:14:19.749Z,1.67
2022-09-23T09:19:47.952Z,1.70
2022-09-23T09:25:14.378Z,1.73
2022-09-23T09:30:28.478Z,1.67
2022-09-23T09:35:40.289Z,1.80
2022-09-23T09:40:54.871Z,2.20
2022-09-23T09:46:19.113Z,2.13
2022-09-23T09:51:33.272Z,1.85
2022-09-23T09:56:45.354Z,2.15
2022-09-23T10:01:51.820Z,2.20
2022-09-23T10:07:18.044Z,2.53
2022-09-23T10:12:55.971Z,2.20
2022-09-23T10:18:25.010Z,2.45
2022-09-23T10:23:41.455Z,1.95
2022-09-23T10:29:21.436Z,2.28
2022-09-23T10:34:42.485Z,2.50
2022-09-23T10:40:05.265Z,1.85
2022-09-23T10:45:42.651Z,1.88
2022-09-23T10:50:59.612Z,1.70
2022-09-23T10:56:40.021Z,2.25
2022-09-23T11:02:12.321Z,1.70
2022-09-23T11:07:32.752Z,1.80
2022-09-23T11:12:49.306Z,1.73
2022-09-23T11:18:27.177Z,1.42
2022-09-23T11:23:54.123Z,1.42
2022-09-23T11:35:16.857Z,1.40
2022-09-23T11:40:32.219Z,1.73
2022-09-23T11:45:44.359Z,1.50
2022-09-23T11:51:00.437Z,1.40
2022-09-23T11:56:16.673Z,1.63
2022-09-23T12:01:37.984Z,1.50
2022-09-23T12:06:52.819Z,1.63
2022-09-23T12:12:21.917Z,1.55
2022-09-23T12:18:08.080Z,1.50
2022-09-23T12:23:27.072Z,1.58
2022-09-23T12:28:38.594Z,1.15
2022-09-23T12:33:54.835Z,1.52
2022-09-23T12:39:22.080Z,1.65
2022-09-23T12:44:41.114Z,2.13
2022-09-23T12:49:47.431Z,1.70
2022-09-23T12:55:08.209Z,1.20
2022-09-23T13:00:32.163Z,1.30
2022-09-23T13:06:03.608Z,1.23
2022-09-23T13:11:24.543Z,0.93
2022-09-23T13:16:37.481Z,1.20
2022-09-23T13:22:11.350Z,1.00
2022-09-23T13:27:30.409Z,1.20
2022-09-23T13:32:50.426Z,1.13
2022-09-23T13:38:00.974Z,1.45
2022-09-23T13:43:14.151Z,1.30
2022-09-23T13:48:22.695Z,3.78
2022-09-23T13:53:39.844Z,0.80
2022-09-23T13:58:50.598Z,0.90
2022-09-23T14:03:57.591Z,1.13
2022-09-23T14:09:10.949Z,0.95
2022-09-23T14:14:21.237Z,1.08
2022-09-23T14:19:39.272Z,0.90
2022-09-23T14:24:45.364Z,0.80
2022-09-23T14:30:21.939Z,0.90
2022-09-23T14:35:56.255Z,1.00
2022-09-23T14:41:17.638Z,0.70
2022-09-23T14:46:41.995Z,0.98
2022-09-23T14:52:00.218Z,0.68
2022-09-23T14:57:08.380Z,0.90
2022-09-23T15:02:53.003Z,1.20
2022-09-23T15:08:05.399Z,0.93
2022-09-23T15:13:13.946Z,1.02
2022-09-23T15:18:23.477Z,0.98
2022-09-23T15:24:05.813Z,0.70
2022-09-23T15:29:22.027Z,0.80
2022-09-23T15:34:57.778Z,1.00
2022-09-23T15:40:04.123Z,1.17
2022-09-23T15:45:13.284Z,1.02
2022-09-23T15:50:36.007Z,1.58
2022-09-23T15:56:02.636Z,0.90
2022-09-23T16:01:23.830Z,1.00
2022-09-23T16:06:32.125Z,0.88
2022-09-23T16:11:38.571Z,1.10
2022-09-23T16:16:50.433Z,1.08
2022-09-23T16:22:04.467Z,1.20
2022-09-23T16:27:12.426Z,1.10
2022-09-23T16:32:25.067Z,1.63
2022-09-23T16:37:39.907Z,1.23
2022-09-23T16:42:56.024Z,1.63
2022-09-23T16:48:05.290Z,1.60
2022-09-23T16:53:29.674Z,1.58
2022-09-23T16:58:40.393Z,2.00
2022-09-23T17:03:47.390Z,3.22
2022-09-23T17:09:02.277Z,2.85
2022-09-23T17:14:14.915Z,2.70
2022-09-23T17:19:27.079Z,2.72
2022-09-23T17:24:45.291Z,2.10
2022-09-23T17:30:05.198Z,2.30
2022-09-23T17:46:21.713Z,3.47
2022-09-23T17:51:33.156Z,8.00
2022-09-23T17:56:57.630Z,5.20
2022-09-23T18:02:04.548Z,4.60
2022-09-23T18:07:17.133Z,4.30
2022-09-23T18:12:31.913Z,4.13
2022-09-23T18:17:53.248Z,3.95
2022-09-23T18:23:12.938Z,4.00
2022-09-23T18:28:31.406Z,3.53
2022-09-23T18:33:44.304Z,4.13
2022-09-23T18:39:04.037Z,4.00
2022-09-23T18:44:30.595Z,3.80
2022-09-23T18:50:06.576Z,6.00
2022-09-23T18:55:30.249Z,3.90
2022-09-23T19:01:00.848Z,4.68
2022-09-23T19:06:21.269Z,4.18
2022-09-23T19:11:27.368Z,4.38
2022-09-23T19:16:35.298Z,4.25
2022-09-23T19:21:44.876Z,5.13
2022-09-23T19:26:52.103Z,4.90
2022-09-23T19:32:03.789Z,5.75
2022-09-23T19:37:11.096Z,4.40
2022-09-23T19:42:20.074Z,3.85
2022-09-23T19:47:29.835Z,4.20
2022-09-23T19:52:40.573Z,4.28
2022-09-23T19:58:10.522Z,3.97
2022-09-23T20:03:21.952Z,4.15
2022-09-23T20:08:30.742Z,4.03
2022-09-23T20:13:39.821Z,4.00
2022-09-23T20:18:57.261Z,3.47
2022-09-23T20:24:12.303Z,4.22
2022-09-23T20:29:24.404Z,4.35
2022-09-23T20:34:33.816Z,3.72
2022-09-23T20:39:42.561Z,3.92
2022-09-23T20:44:48.272Z,3.47
2022-09-23T20:49:57.354Z,3.63
2022-09-23T21:00:25.744Z,3.83
2022-09-23T21:05:42.842Z,3.90
2022-09-23T21:10:57.871Z,3.95
2022-09-23T21:16:10.407Z,4.55
2022-09-23T21:21:20.814Z,4.30
2022-09-23T21:26:41.537Z,4.40
2022-09-23T21:31:52.566Z,4.63
2022-09-23T21:37:07.626Z,4.30
2022-09-23T21:47:20.508Z,4.43
2022-09-23T21:52:35.957Z,4.20
2022-09-23T21:57:46.825Z,4.60
2022-09-23T22:02:50.990Z,5.40
2022-09-23T22:08:05.237Z,5.00
2022-09-23T22:13:13.082Z,4.85
2022-09-23T22:18:20.465Z,3.50
2022-09-23T22:23:31.583Z,3.28
2022-09-23T22:28:55.487Z,3.75
2022-09-23T22:33:59.604Z,3.00
2022-09-23T22:39:13.927Z,3.10
2022-09-23T22:44:19.871Z,3.50
2022-09-23T22:49:28.457Z,3.97
2022-09-23T22:54:38.933Z,3.65
2022-09-23T22:59:58.165Z,3.45
2022-09-23T23:10:32.031Z,3.50
2022-09-23T23:15:43.423Z,4.10
2022-09-23T23:20:50.535Z,3.75
2022-09-23T23:25:59.317Z,3.97
2022-09-23T23:31:08.274Z,4.28
2022-09-23T23:36:32.477Z,4.15
2022-09-23T23:41:48.316Z,4.28
2022-09-23T23:46:55.020Z,3.80
2022-09-23T23:52:04.660Z,4.18
2022-09-23T23:57:29.279Z,3.97
